Marstons Mills, Massachusetts
Current Conditions -  °F | °C
As of 11:15 AM on Wednesday 28 Jan 2015 (Local Time) from KFMH Reporting Station
Clear Clear  
Wind Chill: 10°   Ceiling: Unl
Heat Index: 21°   Visibility: 10mi
Dew Point:   Wind: 10mph
Humidity: 54%   Direction: 350°N
Pressure: 29.93"   Gusts: NA
Location:  41.66°N, 70.41°W
Report Text: KFMH 281615Z 35009KT 10SM SKC M06/M14 A2993 RMK AO2
Loading
Personal Weather Stations






























Interactive Weather Map New forecast layout! Learn more

10-Day Weather Forecast

Advertisements
Track Severe Weather on mobile